createdAt,value
2023-02-12T10:06:17.446Z,8.79
2023-02-12T10:08:40.209Z,8.79
2023-02-12T10:10:51.949Z,8.20
2023-02-12T10:13:04.044Z,8.08
2023-02-12T10:15:13.157Z,8.20
2023-02-12T10:17:40.165Z,8.24
2023-02-12T10:20:10.480Z,8.17
2023-02-12T10:22:55.026Z,7.92
2023-02-12T10:25:26.999Z,7.92
2023-02-12T10:27:49.474Z,7.92
2023-02-12T10:29:53.161Z,8.05
2023-02-12T10:32:04.772Z,8.11
2023-02-12T10:34:34.696Z,8.40
2023-02-12T10:36:44.485Z,8.45
2023-02-12T10:38:51.914Z,8.53
2023-02-12T10:41:01.796Z,8.69
2023-02-12T10:43:04.632Z,8.43
2023-02-12T10:45:15.380Z,8.62
2023-02-12T10:47:20.035Z,8.42
2023-02-12T10:49:22.788Z,8.25
2023-02-12T10:51:46.471Z,8.38
2023-02-12T10:53:49.650Z,8.62
2023-02-12T10:56:25.992Z,8.61
2023-02-12T10:58:28.625Z,8.97
2023-02-12T11:00:37.028Z,8.94
2023-02-12T11:02:40.121Z,8.85
2023-02-12T11:04:42.725Z,8.93
2023-02-12T11:07:01.731Z,8.67
2023-02-12T11:09:05.929Z,8.76
2023-02-12T11:11:16.139Z,9.41
2023-02-12T11:13:28.956Z,9.78
2023-02-12T11:15:52.104Z,10.48
2023-02-12T11:18:09.132Z,11.11
2023-02-12T11:20:17.817Z,11.45
2023-02-12T11:22:20.712Z,11.78
2023-02-12T11:24:30.022Z,11.45
2023-02-12T11:26:33.701Z,11.98
2023-02-12T11:28:37.594Z,11.93
2023-02-12T11:31:03.918Z,12.13
2023-02-12T11:33:23.087Z,12.41
2023-02-12T11:35:28.447Z,12.49
2023-02-12T11:37:38.054Z,12.77
2023-02-12T11:39:46.220Z,13.16
2023-02-12T11:41:55.597Z,12.58
2023-02-12T11:43:59.354Z,12.31
2023-02-12T11:46:03.296Z,11.42
2023-02-12T11:48:20.997Z,10.83
2023-02-12T11:50:31.250Z,11.04
2023-02-12T11:52:38.100Z,11.33
2023-02-12T11:54:46.372Z,11.50
2023-02-12T11:56:49.654Z,11.83
2023-02-12T11:58:52.716Z,11.85
2023-02-12T12:01:14.229Z,12.02
2023-02-12T12:03:34.793Z,12.06
2023-02-12T12:05:45.800Z,11.89
2023-02-12T12:07:57.647Z,11.84
2023-02-12T12:10:13.616Z,11.95
2023-02-12T12:12:23.284Z,11.62
2023-02-12T12:15:00.725Z,11.42
2023-02-12T12:17:32.604Z,11.18
2023-02-12T12:19:56.057Z,10.41
2023-02-12T12:22:14.505Z,10.05
2023-02-12T12:24:44.344Z,10.33
2023-02-12T12:27:00.658Z,10.38
2023-02-12T12:29:03.520Z,10.59
2023-02-12T12:31:12.525Z,10.53
2023-02-12T12:33:30.452Z,10.49
2023-02-12T12:35:46.125Z,10.22
2023-02-12T12:38:02.380Z,10.43
2023-02-12T12:40:17.661Z,10.30
2023-02-12T12:42:40.906Z,10.18
2023-02-12T12:44:49.781Z,10.19
2023-02-12T12:47:01.255Z,10.39
2023-02-12T12:49:32.626Z,10.52
2023-02-12T12:51:44.720Z,10.97
2023-02-12T12:54:23.186Z,10.89
2023-02-12T12:57:04.950Z,10.76
2023-02-12T12:59:36.889Z,10.75
2023-02-12T13:02:01.342Z,11.00
2023-02-12T13:04:28.887Z,11.05
2023-02-12T13:06:50.766Z,10.91
2023-02-12T13:09:50.305Z,10.97
2023-02-12T13:12:14.687Z,10.94
2023-02-12T13:15:02.595Z,11.19
2023-02-12T13:17:29.999Z,10.92
2023-02-12T13:20:07.066Z,10.94
2023-02-12T13:22:27.293Z,10.63
2023-02-12T13:24:38.142Z,10.21
2023-02-12T13:26:59.238Z,10.02
2023-02-12T13:29:13.593Z,9.91
2023-02-12T13:31:32.690Z,9.71
2023-02-12T13:34:01.645Z,9.66
2023-02-12T13:36:09.798Z,9.83
2023-02-12T13:38:41.128Z,10.02
2023-02-12T13:40:44.322Z,9.88
2023-02-12T13:42:55.576Z,9.91
2023-02-12T13:45:07.755Z,10.04
2023-02-12T13:47:45.651Z,10.02
2023-02-12T13:50:25.775Z,10.00
2023-02-12T13:52:47.186Z,9.82
2023-02-12T13:54:58.297Z,10.02
2023-02-12T13:57:03.941Z,9.80
2023-02-12T13:59:33.282Z,9.78
2023-02-12T14:01:38.941Z,9.53
2023-02-12T14:03:42.806Z,9.53
2023-02-12T14:05:50.426Z,9.18
2023-02-12T14:08:05.868Z,9.43
2023-02-12T14:10:25.088Z,9.76
2023-02-12T14:12:35.609Z,9.89
2023-02-12T14:14:50.870Z,10.08
2023-02-12T14:16:54.662Z,10.14
2023-02-12T14:19:35.466Z,10.12
2023-02-12T14:21:41.488Z,10.03
2023-02-12T14:23:47.341Z,10.07
2023-02-12T14:25:58.942Z,9.79
2023-02-12T14:28:39.594Z,9.68
2023-02-12T14:30:43.381Z,9.75
2023-02-12T14:32:51.067Z,9.70
2023-02-12T14:34:54.678Z,9.47
2023-02-12T14:37:15.263Z,9.29
2023-02-12T14:39:21.652Z,9.07
2023-02-12T14:41:43.229Z,9.08
2023-02-12T14:44:27.345Z,8.78
2023-02-12T14:46:36.999Z,8.90
2023-02-12T14:48:51.032Z,8.79
2023-02-12T14:50:56.338Z,8.69
2023-02-12T14:53:05.697Z,8.56
2023-02-12T14:55:22.836Z,8.47
2023-02-12T14:57:42.666Z,8.42
2023-02-12T14:59:48.109Z,8.31
2023-02-12T15:01:52.771Z,8.36
2023-02-12T15:03:59.652Z,8.46
2023-02-12T15:09:11.796Z,8.57
2023-02-12T15:11:42.003Z,8.43
2023-02-12T15:13:49.843Z,8.56
2023-02-12T15:16:32.672Z,8.61
2023-02-12T15:18:36.639Z,8.72
2023-02-12T15:20:57.235Z,8.75
2023-02-12T15:23:00.478Z,8.69
2023-02-12T15:25:30.754Z,8.62
2023-02-12T15:27:34.271Z,8.53
2023-02-12T15:29:44.269Z,8.55
2023-02-12T15:31:53.700Z,8.59
2023-02-12T15:33:59.702Z,8.47
2023-02-12T15:36:04.875Z,8.42
2023-02-12T15:38:09.110Z,8.33
2023-02-12T15:40:16.670Z,8.27
2023-02-12T15:42:40.947Z,8.13
2023-02-12T15:44:46.198Z,7.94
2023-02-12T15:46:55.913Z,7.70
2023-02-12T15:49:00.828Z,7.75
2023-02-12T15:51:31.392Z,7.63
2023-02-12T15:53:35.203Z,7.67
2023-02-12T15:55:43.105Z,7.61
2023-02-12T15:57:57.547Z,7.42
2023-02-12T16:00:39.676Z,7.58
2023-02-12T16:02:43.161Z,7.55
2023-02-12T16:04:48.028Z,7.31
2023-02-12T16:06:55.920Z,7.24
2023-02-12T16:09:27.890Z,7.21
2023-02-12T16:11:33.172Z,7.09
2023-02-12T16:13:37.948Z,6.94
2023-02-12T16:15:44.065Z,6.82
2023-02-12T16:17:51.784Z,6.72
2023-02-12T16:19:59.553Z,6.60
2023-02-12T16:22:14.899Z,6.65
2023-02-12T16:24:33.476Z,6.63
2023-02-12T16:26:37.549Z,6.56
2023-02-12T16:28:54.739Z,6.63
2023-02-12T16:31:16.501Z,6.54
2023-02-12T16:33:33.789Z,6.47
2023-02-12T16:35:37.293Z,6.38
2023-02-12T16:37:40.630Z,6.16
2023-02-12T16:40:00.606Z,6.08
2023-02-12T16:42:04.351Z,6.05
2023-02-12T16:44:26.818Z,6.18
2023-02-12T16:46:45.864Z,6.27
2023-02-12T16:48:55.270Z,6.36
2023-02-12T16:50:59.874Z,6.36
2023-02-12T16:53:09.736Z,6.26
2023-02-12T16:55:16.598Z,6.13
2023-02-12T16:57:23.622Z,6.01
2023-02-12T16:59:27.715Z,5.99
2023-02-12T17:01:37.540Z,6.11
2023-02-12T17:03:42.914Z,6.11
2023-02-12T17:05:46.527Z,6.02
2023-02-12T17:07:50.842Z,5.92
2023-02-12T17:09:54.373Z,6.03
2023-02-12T17:11:57.602Z,5.98
2023-02-12T17:14:01.751Z,5.88
2023-02-12T17:16:06.948Z,5.88
2023-02-12T17:18:14.768Z,5.90
2023-02-12T17:20:19.205Z,5.86
2023-02-12T17:22:26.810Z,5.80
2023-02-12T17:24:32.464Z,5.73
2023-02-12T17:26:37.740Z,5.75
2023-02-12T17:28:42.083Z,5.66
2023-02-12T17:30:47.383Z,5.38
2023-02-12T17:32:51.577Z,5.69
2023-02-12T17:34:55.196Z,5.73
2023-02-12T17:36:59.730Z,5.75
2023-02-12T17:39:11.326Z,5.54
2023-02-12T17:41:15.921Z,5.57
2023-02-12T17:43:20.529Z,5.38
2023-02-12T17:45:24.477Z,5.39
2023-02-12T17:47:28.271Z,5.61
2023-02-12T17:49:32.889Z,5.42
2023-02-12T17:51:38.335Z,5.39
2023-02-12T17:53:44.276Z,5.36
2023-02-12T17:55:47.567Z,5.26
2023-02-12T17:57:55.979Z,5.24
2023-02-12T17:59:59.780Z,5.20
2023-02-12T18:02:06.919Z,5.40
2023-02-12T18:04:11.235Z,5.40
2023-02-12T18:06:17.165Z,5.46
2023-02-12T18:08:20.746Z,5.36
2023-02-12T18:10:24.271Z,5.35
2023-02-12T18:12:28.099Z,5.34
2023-02-12T18:14:32.738Z,5.47
2023-02-12T18:16:42.617Z,5.51
2023-02-12T18:18:46.822Z,5.41
2023-02-12T18:20:51.104Z,5.30
2023-02-12T18:22:56.106Z,5.24
2023-02-12T18:24:59.591Z,5.07
2023-02-12T18:27:03.378Z,5.11
2023-02-12T18:29:07.911Z,5.26
2023-02-12T18:31:11.658Z,5.34
2023-02-12T18:33:15.883Z,5.32
2023-02-12T18:35:20.293Z,5.29
2023-02-12T18:37:25.202Z,5.24
2023-02-12T18:39:29.776Z,5.12
2023-02-12T18:41:40.740Z,4.97
2023-02-12T18:43:44.973Z,4.90
2023-02-12T18:45:48.885Z,4.99
2023-02-12T18:47:52.547Z,5.02
2023-02-12T18:49:58.569Z,4.92
2023-02-12T18:52:03.055Z,4.91
2023-02-12T18:54:12.850Z,4.91
2023-02-12T18:56:18.974Z,4.93
2023-02-12T18:58:26.112Z,4.93
2023-02-12T19:00:34.006Z,4.83
2023-02-12T19:02:38.582Z,4.80
2023-02-12T19:04:45.430Z,4.81
2023-02-12T19:06:54.207Z,4.71
2023-02-12T19:09:00.538Z,4.45
2023-02-12T19:11:06.630Z,4.48
2023-02-12T19:13:12.204Z,4.44
2023-02-12T19:15:16.159Z,4.64
2023-02-12T19:17:21.335Z,4.52
2023-02-12T19:19:27.541Z,4.39
2023-02-12T19:21:32.016Z,4.31
2023-02-12T19:23:36.619Z,4.29
2023-02-12T19:25:46.001Z,4.51
2023-02-12T19:27:49.810Z,4.54
2023-02-12T19:29:54.639Z,4.57
2023-02-12T19:32:01.072Z,4.64
2023-02-12T19:34:18.624Z,4.71
2023-02-12T19:36:22.924Z,4.74
2023-02-12T19:38:28.258Z,4.56
2023-02-12T19:40:32.836Z,4.60
2023-02-12T19:42:57.696Z,4.64
2023-02-12T19:45:05.224Z,4.61
2023-02-12T19:47:10.219Z,4.61
2023-02-12T19:49:18.386Z,4.58
2023-02-12T19:51:25.168Z,4.62
2023-02-12T19:53:29.441Z,4.46
2023-02-12T19:55:36.487Z,4.38
2023-02-12T19:57:41.715Z,4.44
2023-02-12T19:59:47.114Z,4.54
2023-02-12T20:01:51.407Z,4.41
2023-02-12T20:03:59.914Z,4.43
2023-02-12T20:06:07.732Z,4.32
2023-02-12T20:08:11.514Z,4.19
2023-02-12T20:10:18.222Z,4.30
2023-02-12T20:12:21.965Z,4.30
2023-02-12T20:14:28.144Z,4.36
2023-02-12T20:16:37.987Z,4.42
2023-02-12T20:18:47.136Z,4.11
2023-02-12T20:20:52.509Z,3.63
2023-02-12T20:22:57.431Z,3.51
2023-02-12T20:25:02.978Z,3.30
2023-02-12T20:27:07.089Z,3.29
2023-02-12T20:29:10.372Z,3.35
2023-02-12T20:31:23.828Z,3.48
2023-02-12T20:33:27.685Z,3.40
2023-02-12T20:35:32.172Z,3.27
2023-02-12T20:37:35.881Z,3.41
2023-02-12T20:39:42.342Z,3.45
2023-02-12T20:41:46.866Z,3.41
2023-02-12T20:43:51.636Z,3.47
2023-02-12T20:48:06.744Z,3.31
2023-02-12T20:50:11.169Z,3.17
2023-02-12T20:52:14.909Z,3.21
2023-02-12T20:54:20.356Z,3.19
2023-02-12T20:56:40.360Z,3.13
2023-02-12T20:58:45.543Z,3.05
2023-02-12T21:00:49.616Z,2.98
2023-02-12T21:02:55.015Z,2.77
2023-02-12T21:04:58.858Z,2.83
2023-02-12T21:07:02.921Z,2.78
2023-02-12T21:09:09.429Z,2.80
2023-02-12T21:11:20.005Z,2.86
2023-02-12T21:13:25.921Z,2.85
2023-02-12T21:15:30.263Z,2.72
2023-02-12T21:17:34.209Z,2.74
2023-02-12T21:19:38.851Z,2.85
2023-02-12T21:21:46.386Z,2.74
2023-02-12T21:23:53.269Z,2.79
2023-02-12T21:26:10.046Z,2.63
2023-02-12T21:28:14.778Z,2.59
2023-02-12T21:30:18.343Z,2.75
2023-02-12T21:32:22.139Z,2.71
2023-02-12T21:34:25.528Z,2.72
2023-02-12T21:36:31.968Z,2.49
2023-02-12T21:38:40.081Z,2.60
2023-02-12T21:40:42.804Z,2.61
2023-02-12T21:42:45.747Z,2.52
2023-02-12T21:44:49.706Z,2.62
2023-02-12T21:46:53.283Z,2.41
2023-02-12T21:48:56.679Z,2.57
2023-02-12T21:51:00.747Z,2.43
2023-02-12T21:53:03.500Z,2.40
2023-02-12T21:55:06.355Z,2.34
2023-02-12T21:57:09.624Z,2.32
2023-02-12T21:59:13.360Z,2.39
2023-02-12T22:01:19.052Z,2.28
2023-02-12T22:03:22.603Z,2.45
2023-02-12T22:05:25.125Z,2.38
2023-02-12T22:07:27.721Z,2.21
2023-02-12T22:09:30.462Z,2.12
2023-02-12T22:11:32.808Z,2.17
2023-02-12T22:13:36.287Z,2.25
2023-02-12T22:15:38.978Z,2.11
2023-02-12T22:17:41.341Z,2.11
2023-02-12T22:19:43.788Z,1.98
2023-02-12T22:21:49.088Z,1.92
2023-02-12T22:23:52.518Z,1.97
2023-02-12T22:25:54.951Z,1.89
2023-02-12T22:27:57.572Z,1.97
2023-02-12T22:30:00.840Z,1.87
2023-02-12T22:32:03.287Z,1.83
2023-02-12T22:34:09.929Z,1.88
2023-02-12T22:36:12.528Z,1.88
2023-02-12T22:38:14.860Z,1.97
2023-02-12T22:40:17.473Z,1.94
2023-02-12T22:42:19.740Z,1.96
2023-02-12T22:44:22.300Z,1.91
2023-02-12T22:46:25.123Z,1.80
2023-02-12T22:48:28.747Z,1.81
2023-02-12T22:50:31.027Z,1.87
2023-02-12T22:52:33.701Z,1.93
2023-02-12T22:54:36.016Z,1.87
2023-02-12T22:56:38.323Z,1.93
2023-02-12T22:58:41.169Z,1.88
2023-02-12T23:00:43.653Z,1.60
2023-02-12T23:02:45.933Z,1.77
2023-02-12T23:04:48.579Z,1.79
